createdAt,value
2023-01-11T00:00:40.881Z,8.10
2023-01-11T00:03:08.486Z,8.00
2023-01-11T00:05:40.773Z,8.00
2023-01-11T00:08:09.277Z,7.90
2023-01-11T00:10:36.948Z,7.90
2023-01-11T00:13:05.243Z,7.90
2023-01-11T00:15:34.500Z,7.90
2023-01-11T00:18:03.044Z,7.80
2023-01-11T00:20:30.705Z,7.80
2023-01-11T00:22:58.625Z,7.80
2023-01-11T00:25:26.382Z,7.70
2023-01-11T00:30:23.061Z,7.70
2023-01-11T00:32:55.815Z,7.70
2023-01-11T00:35:23.545Z,7.70
2023-01-11T00:37:52.191Z,7.60
2023-01-11T00:40:20.448Z,7.60
2023-01-11T00:43:06.498Z,7.60
2023-01-11T00:45:52.700Z,7.60
2023-01-11T00:48:20.345Z,7.60
2023-01-11T00:50:47.856Z,7.60
2023-01-11T00:53:15.626Z,7.60
2023-01-11T00:55:43.222Z,7.50
2023-01-11T00:58:10.869Z,7.50
2023-01-11T01:00:38.808Z,7.50
2023-01-11T01:03:06.424Z,7.50
2023-01-11T01:05:33.973Z,7.60
2023-01-11T01:08:01.693Z,7.60
2023-01-11T01:10:29.305Z,7.70
2023-01-11T01:13:15.363Z,7.60
2023-01-11T01:18:10.765Z,7.50
2023-01-11T01:20:38.444Z,7.50
2023-01-11T01:23:05.949Z,7.50
2023-01-11T01:25:35.955Z,7.50
2023-01-11T01:28:03.517Z,7.40
2023-01-11T01:30:30.940Z,7.40
2023-01-11T01:32:58.838Z,7.40
2023-01-11T01:35:26.575Z,7.30
2023-01-11T01:37:54.112Z,7.30
2023-01-11T01:40:22.709Z,7.30
2023-01-11T01:42:54.359Z,7.20
2023-01-11T01:45:28.900Z,7.20
2023-01-11T01:48:02.153Z,7.20
2023-01-11T01:50:48.571Z,7.20
2023-01-11T01:53:29.307Z,7.20
2023-01-11T01:56:01.474Z,7.10
2023-01-11T01:58:35.381Z,7.10
2023-01-11T02:01:23.361Z,7.10
2023-01-11T02:03:52.154Z,7.10
2023-01-11T02:06:22.179Z,7.10
2023-01-11T02:08:56.818Z,7.10
2023-01-11T02:11:31.940Z,7.10
2023-01-11T02:14:03.365Z,7.10
2023-01-11T02:16:31.006Z,7.00
2023-01-11T02:18:59.882Z,7.00
2023-01-11T02:21:53.379Z,7.00
2023-01-11T02:24:42.491Z,7.00
2023-01-11T02:27:23.953Z,6.90
2023-01-11T02:30:03.521Z,7.00
2023-01-11T02:32:47.851Z,6.90
2023-01-11T02:35:36.351Z,6.80
2023-01-11T02:38:22.291Z,6.80
2023-01-11T02:41:21.514Z,6.80
2023-01-11T02:44:24.463Z,6.70
2023-01-11T02:47:04.842Z,6.60
2023-01-11T02:49:35.895Z,6.70
2023-01-11T02:52:09.470Z,6.70
2023-01-11T02:54:40.735Z,6.70
2023-01-11T02:57:11.122Z,6.70
2023-01-11T02:59:40.722Z,6.80
2023-01-11T03:02:08.340Z,6.80
2023-01-11T03:04:37.805Z,6.70
2023-01-11T03:07:14.482Z,6.70
2023-01-11T03:09:55.426Z,6.70
2023-01-11T03:12:51.376Z,6.70
2023-01-11T03:15:27.525Z,6.60
2023-01-11T03:18:33.336Z,6.50
2023-01-11T03:21:37.850Z,6.60
2023-01-11T03:24:31.201Z,6.60
2023-01-11T03:27:10.744Z,6.60
2023-01-11T03:30:07.140Z,6.60
2023-01-11T03:32:48.586Z,6.70
2023-01-11T03:35:31.003Z,6.70
2023-01-11T03:38:17.676Z,6.80
2023-01-11T03:41:04.510Z,6.80
2023-01-11T03:43:36.414Z,6.80
2023-01-11T03:46:18.575Z,6.80
2023-01-11T03:48:52.806Z,6.80
2023-01-11T03:51:27.975Z,6.80
2023-01-11T03:54:00.573Z,6.80
2023-01-11T03:56:37.014Z,6.70
2023-01-11T03:59:04.844Z,6.70
2023-01-11T04:04:00.335Z,6.70
2023-01-11T04:06:27.933Z,6.60
2023-01-11T04:08:55.490Z,6.60
2023-01-11T04:11:22.991Z,6.60
2023-01-11T04:13:50.596Z,6.60
2023-01-11T04:16:18.111Z,6.60
2023-01-11T04:18:45.807Z,6.60
2023-01-11T04:21:13.379Z,6.60
2023-01-11T04:23:40.915Z,6.60
2023-01-11T04:26:08.426Z,6.60
2023-01-11T04:28:36.003Z,6.50
2023-01-11T04:31:03.683Z,6.50
2023-01-11T04:33:31.293Z,6.50
2023-01-11T04:35:58.846Z,6.50
2023-01-11T04:38:27.223Z,6.50
2023-01-11T04:41:14.672Z,6.50
2023-01-11T04:43:42.267Z,6.50
2023-01-11T04:46:11.004Z,6.50
2023-01-11T04:48:40.475Z,6.40
2023-01-11T04:51:09.351Z,6.50
2023-01-11T04:53:36.955Z,6.40
2023-01-11T04:56:06.123Z,6.40
2023-01-11T04:58:37.997Z,6.40
2023-01-11T05:01:10.773Z,6.40
2023-01-11T05:03:38.506Z,6.40
2023-01-11T05:06:06.388Z,6.40
2023-01-11T05:08:34.395Z,6.40
2023-01-11T05:11:04.797Z,6.40
2023-01-11T05:13:45.181Z,6.30
2023-01-11T05:16:14.711Z,6.30
2023-01-11T05:18:44.198Z,6.30
2023-01-11T05:21:14.003Z,6.20
2023-01-11T05:23:42.178Z,6.20
2023-01-11T05:26:22.919Z,6.20
2023-01-11T05:28:51.850Z,6.20
2023-01-11T05:31:19.787Z,6.20
2023-01-11T05:33:47.768Z,6.20
2023-01-11T05:36:18.280Z,6.20
2023-01-11T05:38:47.148Z,6.20
2023-01-11T05:41:14.973Z,6.10
2023-01-11T05:44:04.233Z,6.10
2023-01-11T05:46:33.540Z,6.10
2023-01-11T05:49:01.866Z,6.10
2023-01-11T05:51:30.884Z,6.10
2023-01-11T05:54:02.816Z,6.10
2023-01-11T05:56:30.414Z,6.10
2023-01-11T05:58:58.400Z,6.10
2023-01-11T06:01:26.468Z,6.10
2023-01-11T06:03:54.071Z,6.10
2023-01-11T06:06:22.623Z,6.10
2023-01-11T06:08:50.321Z,6.00
2023-01-11T06:11:19.037Z,6.00
2023-01-11T06:13:46.638Z,6.00
2023-01-11T06:16:19.742Z,5.90
2023-01-11T06:18:49.807Z,5.90
2023-01-11T06:21:18.014Z,5.90
2023-01-11T06:23:48.131Z,5.90
2023-01-11T06:26:17.153Z,5.90
2023-01-11T06:28:44.804Z,5.90
2023-01-11T06:31:12.805Z,5.90
2023-01-11T06:33:41.133Z,5.90
2023-01-11T06:36:10.744Z,5.90
2023-01-11T06:41:10.973Z,5.90
2023-01-11T06:43:41.562Z,5.90
2023-01-11T06:46:14.576Z,5.90
2023-01-11T06:48:43.180Z,6.10
2023-01-11T06:51:12.185Z,5.90
2023-01-11T06:53:41.008Z,5.90
2023-01-11T06:56:12.242Z,5.90
2023-01-11T06:58:39.880Z,5.90
2023-01-11T07:01:07.887Z,5.90
2023-01-11T07:03:35.847Z,5.90
2023-01-11T07:06:04.435Z,5.90
2023-01-11T07:08:32.026Z,5.90
2023-01-11T07:10:59.751Z,5.90
2023-01-11T07:13:27.404Z,5.90
2023-01-11T07:15:57.289Z,5.90
2023-01-11T07:18:24.893Z,5.90
2023-01-11T07:20:52.445Z,5.80
2023-01-11T07:23:20.199Z,5.90
2023-01-11T07:25:49.713Z,5.90
2023-01-11T07:28:17.363Z,5.90
2023-01-11T07:30:57.263Z,5.90
2023-01-11T07:33:26.561Z,5.90
2023-01-11T07:35:54.737Z,6.00
2023-01-11T07:38:22.844Z,6.00
2023-01-11T07:40:50.606Z,6.00
2023-01-11T07:43:19.965Z,6.10
2023-01-11T07:45:49.827Z,6.10
2023-01-11T07:48:24.646Z,6.10
2023-01-11T07:50:53.015Z,6.10
2023-01-11T07:53:21.123Z,6.10
2023-01-11T07:55:48.781Z,6.10
2023-01-11T07:58:16.289Z,6.00
2023-01-11T08:00:46.041Z,6.00
2023-01-11T08:03:13.898Z,6.00
2023-01-11T08:05:41.373Z,6.00
2023-01-11T08:08:09.010Z,6.00
2023-01-11T08:10:36.571Z,6.00
2023-01-11T08:13:22.922Z,5.90
2023-01-11T08:15:50.923Z,5.90
2023-01-11T08:18:19.820Z,5.90
2023-01-11T08:20:47.667Z,5.80
2023-01-11T08:23:16.345Z,5.80
2023-01-11T08:25:44.823Z,5.80
2023-01-11T08:28:12.465Z,5.80
2023-01-11T08:30:40.458Z,5.80
2023-01-11T08:33:08.133Z,5.90
2023-01-11T08:35:39.334Z,5.90
2023-01-11T08:38:07.436Z,5.90
2023-01-11T08:40:35.650Z,5.90
2023-01-11T08:43:03.641Z,5.90
2023-01-11T08:45:31.237Z,5.90
2023-01-11T08:47:59.941Z,5.90
2023-01-11T08:50:27.771Z,5.90
2023-01-11T08:52:55.443Z,5.80
2023-01-11T08:55:22.959Z,5.90
2023-01-11T08:57:50.552Z,5.90
2023-01-11T09:00:18.904Z,5.90
2023-01-11T09:02:46.595Z,5.90
2023-01-11T09:05:16.250Z,6.00
2023-01-11T09:07:46.010Z,6.00
2023-01-11T09:10:13.592Z,6.10
2023-01-11T09:12:41.300Z,6.20
2023-01-11T09:15:09.726Z,6.30
2023-01-11T09:17:37.347Z,6.40
2023-01-11T09:20:05.371Z,6.40
2023-01-11T09:22:34.072Z,6.50
2023-01-11T09:25:01.673Z,6.50
2023-01-11T09:27:29.295Z,9.30
2023-01-11T09:29:56.866Z,6.70
2023-01-11T09:32:24.424Z,6.70
2023-01-11T09:34:57.248Z,6.70
2023-01-11T09:37:25.113Z,6.80
2023-01-11T09:39:52.884Z,6.80
2023-01-11T09:42:31.774Z,6.70
2023-01-11T09:45:23.988Z,6.80
2023-01-11T09:48:19.698Z,6.70
2023-01-11T09:50:48.692Z,6.70
2023-01-11T09:53:28.156Z,6.70
2023-01-11T09:55:59.608Z,6.70
2023-01-11T09:58:51.612Z,6.70
2023-01-11T10:01:49.536Z,6.80
2023-01-11T10:04:43.576Z,6.90
2023-01-11T10:07:38.949Z,6.90
2023-01-11T10:18:44.421Z,7.10
2023-01-11T10:19:48.088Z,7.00
2023-01-11T10:22:31.770Z,7.00
2023-01-11T10:25:07.642Z,7.00
2023-01-11T10:27:40.960Z,7.00
2023-01-11T10:30:37.407Z,7.00
2023-01-11T10:33:13.714Z,7.10
2023-01-11T10:36:05.908Z,7.10
2023-01-11T10:38:54.723Z,7.20
2023-01-11T10:41:55.105Z,7.30
2023-01-11T10:44:33.170Z,7.30
2023-01-11T10:47:03.203Z,7.40
2023-01-11T10:49:52.257Z,7.40
2023-01-11T10:52:48.022Z,7.50
2023-01-11T10:55:26.878Z,7.50
2023-01-11T10:58:18.440Z,7.60
2023-01-11T11:01:10.497Z,7.60
2023-01-11T11:03:45.230Z,7.70
2023-01-11T11:06:36.139Z,7.80
2023-01-11T11:09:14.468Z,7.80
2023-01-11T11:11:53.147Z,7.90
2023-01-11T11:14:41.570Z,8.00
2023-01-11T11:17:32.627Z,8.00
2023-01-11T11:20:00.555Z,8.10
2023-01-11T11:22:28.142Z,8.20
2023-01-11T11:25:01.574Z,8.30
2023-01-11T11:27:36.513Z,8.50
2023-01-11T11:30:05.174Z,8.50
2023-01-11T11:32:38.522Z,8.50
2023-01-11T11:35:08.250Z,8.50
2023-01-11T11:37:42.157Z,8.50
2023-01-11T11:40:35.755Z,8.50
2023-01-11T11:43:12.275Z,8.50
2023-01-11T11:45:55.311Z,8.40
2023-01-11T11:48:24.399Z,8.40
2023-01-11T11:50:54.200Z,8.40
2023-01-11T11:53:51.206Z,8.40
2023-01-11T11:56:26.992Z,8.40
2023-01-11T11:58:56.837Z,8.40
2023-01-11T12:01:29.457Z,8.40
2023-01-11T12:04:10.718Z,8.40
2023-01-11T12:06:40.296Z,8.40
2023-01-11T12:09:31.039Z,8.40
2023-01-11T12:11:59.517Z,8.40
2023-01-11T12:14:35.281Z,8.40
2023-01-11T12:17:25.922Z,8.40
2023-01-11T12:19:53.898Z,8.40
2023-01-11T12:22:28.060Z,8.40
2023-01-11T12:25:04.678Z,8.40
2023-01-11T12:28:20.539Z,8.40
2023-01-11T12:31:11.566Z,8.40
2023-01-11T12:33:51.143Z,8.40
2023-01-11T12:36:56.464Z,8.40
2023-01-11T12:39:38.177Z,8.40
2023-01-11T12:42:12.058Z,8.40
2023-01-11T12:44:58.896Z,8.40
2023-01-11T12:47:35.482Z,8.30
2023-01-11T12:50:25.109Z,8.30
2023-01-11T12:53:04.820Z,8.30
2023-01-11T12:55:46.658Z,8.30
2023-01-11T12:58:57.968Z,8.20
2023-01-11T13:01:45.702Z,8.20
2023-01-11T13:04:22.339Z,8.10
2023-01-11T13:07:08.095Z,7.90
2023-01-11T13:10:02.676Z,7.90
2023-01-11T13:12:34.971Z,7.70
2023-01-11T13:15:11.621Z,7.60
2023-01-11T13:17:51.331Z,7.50
2023-01-11T13:20:40.421Z,7.30
2023-01-11T13:23:29.311Z,7.20
2023-01-11T13:25:58.475Z,7.30
2023-01-11T13:28:43.554Z,7.20
2023-01-11T13:31:13.802Z,7.20
2023-01-11T13:33:47.397Z,7.30
2023-01-11T13:36:24.177Z,7.30
2023-01-11T13:39:02.031Z,7.40
2023-01-11T13:41:45.017Z,7.50
2023-01-11T13:44:21.238Z,7.50
2023-01-11T13:47:02.795Z,7.40
2023-01-11T13:50:04.815Z,7.40
2023-01-11T13:52:56.117Z,7.60
2023-01-11T13:55:55.122Z,7.70
2023-01-11T13:58:40.933Z,7.70
2023-01-11T14:01:33.122Z,7.60
2023-01-11T14:04:07.594Z,7.50
2023-01-11T14:06:40.826Z,7.60
2023-01-11T14:09:23.417Z,8.10
2023-01-11T14:11:58.516Z,8.50
2023-01-11T14:14:55.490Z,8.50
2023-01-11T14:17:55.495Z,8.50
2023-01-11T14:20:28.472Z,8.20
2023-01-11T14:23:12.071Z,8.00
2023-01-11T14:26:04.265Z,7.80
2023-01-11T14:28:41.543Z,7.70
2023-01-11T14:31:22.051Z,7.60
2023-01-11T14:33:55.631Z,7.60
2023-01-11T14:36:42.796Z,7.50
2023-01-11T14:39:34.955Z,7.50
2023-01-11T14:42:09.425Z,7.40
2023-01-11T14:44:50.525Z,7.30
2023-01-11T14:47:42.906Z,7.30
2023-01-11T14:50:48.419Z,7.20
2023-01-11T14:53:25.381Z,7.10
2023-01-11T14:55:53.089Z,7.10
2023-01-11T14:58:31.943Z,7.10
2023-01-11T15:00:59.961Z,7.00
2023-01-11T15:03:36.000Z,7.00
2023-01-11T15:06:17.000Z,6.90
2023-01-11T15:08:47.439Z,6.90
2023-01-11T15:11:24.144Z,6.80
2023-01-11T15:14:04.316Z,6.80
2023-01-11T15:16:53.938Z,6.70
2023-01-11T15:19:33.638Z,6.70
2023-01-11T15:22:04.303Z,7.10
2023-01-11T15:24:43.173Z,6.70
2023-01-11T15:27:26.384Z,6.80
2023-01-11T15:29:57.140Z,6.90
2023-01-11T15:32:27.346Z,6.90
2023-01-11T15:35:16.931Z,7.00
2023-01-11T15:38:08.954Z,7.00
2023-01-11T15:40:41.647Z,7.00
2023-01-11T15:43:30.749Z,7.10
2023-01-11T15:46:32.659Z,7.10
2023-01-11T15:49:24.479Z,7.10
2023-01-11T15:52:32.282Z,7.10
2023-01-11T15:55:48.186Z,7.20
2023-01-11T15:58:28.258Z,7.20
2023-01-11T16:01:04.515Z,7.20
2023-01-11T16:03:35.205Z,7.30
2023-01-11T16:06:30.485Z,7.30
2023-01-11T16:09:33.651Z,7.30
2023-01-11T16:12:22.745Z,7.40
2023-01-11T16:14:50.297Z,7.30
2023-01-11T16:17:21.942Z,7.40
2023-01-11T16:19:55.392Z,7.40
2023-01-11T16:22:26.459Z,8.20
2023-01-11T16:24:59.853Z,7.50
2023-01-11T16:27:30.978Z,7.50
2023-01-11T16:29:58.928Z,7.50
2023-01-11T16:32:35.296Z,7.60
2023-01-11T16:35:16.048Z,7.60
2023-01-11T16:37:48.879Z,7.60
2023-01-11T16:40:21.841Z,7.60
2023-01-11T16:43:07.414Z,7.60
2023-01-11T16:45:42.295Z,7.60
2023-01-11T16:48:16.442Z,7.60
2023-01-11T16:50:48.418Z,7.50
2023-01-11T16:53:17.687Z,7.50
2023-01-11T16:55:57.006Z,7.50
2023-01-11T16:58:29.853Z,7.50
2023-01-11T17:01:06.423Z,7.50
2023-01-11T17:03:42.626Z,7.50
2023-01-11T17:06:17.669Z,7.50
2023-01-11T17:08:46.800Z,7.60
2023-01-11T17:11:32.634Z,7.50
2023-01-11T17:14:18.490Z,7.60
2023-01-11T17:16:50.042Z,7.60
2023-01-11T17:19:20.344Z,7.60
2023-01-11T17:21:54.611Z,7.60
2023-01-11T17:24:25.856Z,7.70
2023-01-11T17:26:57.904Z,7.60
2023-01-11T17:29:34.874Z,7.60
2023-01-11T17:32:05.786Z,7.50
2023-01-11T17:34:35.545Z,7.50
2023-01-11T17:37:10.528Z,7.50
2023-01-11T17:39:42.756Z,7.60
2023-01-11T17:42:32.099Z,7.50
2023-01-11T17:45:14.364Z,7.60
2023-01-11T17:47:45.791Z,7.60
2023-01-11T17:50:38.120Z,7.60
2023-01-11T17:53:16.771Z,7.60
2023-01-11T17:55:58.547Z,7.60
2023-01-11T17:58:34.078Z,7.60
2023-01-11T18:01:05.112Z,7.60
2023-01-11T18:03:58.628Z,7.60
2023-01-11T18:06:42.157Z,7.60
2023-01-11T18:09:29.582Z,6.80
2023-01-11T18:12:21.607Z,7.50
2023-01-11T18:14:54.083Z,7.50
2023-01-11T18:17:42.273Z,7.40
2023-01-11T18:20:15.930Z,7.40
2023-01-11T18:22:58.876Z,7.30
2023-01-11T18:25:31.274Z,7.20
2023-01-11T18:28:17.705Z,7.20
2023-01-11T18:30:52.371Z,7.20
2023-01-11T18:33:25.544Z,7.20
2023-01-11T18:36:03.129Z,7.20
2023-01-11T18:38:35.884Z,7.20
2023-01-11T18:41:27.608Z,7.20
2023-01-11T18:43:55.829Z,7.20
2023-01-11T18:46:23.474Z,7.20
2023-01-11T18:48:51.192Z,7.20
2023-01-11T18:51:23.963Z,7.20
2023-01-11T18:53:51.572Z,7.20
2023-01-11T18:56:19.164Z,7.20
2023-01-11T18:58:46.816Z,7.20
2023-01-11T19:01:14.520Z,7.20
2023-01-11T19:03:44.608Z,7.20
2023-01-11T19:06:14.543Z,7.30
2023-01-11T19:08:42.068Z,7.30
2023-01-11T19:11:09.766Z,7.30
2023-01-11T19:13:37.421Z,7.30
2023-01-11T19:16:05.487Z,7.30
2023-01-11T19:18:35.225Z,7.40
2023-01-11T19:21:09.321Z,7.30
2023-01-11T19:23:36.935Z,7.30
2023-01-11T19:26:04.675Z,7.40
2023-01-11T19:28:35.307Z,7.50
2023-01-11T19:31:11.366Z,7.40
2023-01-11T19:33:40.363Z,7.40
2023-01-11T19:36:09.289Z,7.50
2023-01-11T19:38:37.228Z,7.40
2023-01-11T19:41:10.100Z,7.50
2023-01-11T19:43:44.755Z,7.40
2023-01-11T19:46:15.029Z,7.40
2023-01-11T19:48:44.814Z,7.20
2023-01-11T19:51:13.135Z,7.20
2023-01-11T19:53:40.815Z,7.20
2023-01-11T19:56:09.433Z,7.10
2023-01-11T19:58:38.229Z,7.10
2023-01-11T20:01:10.997Z,7.00
2023-01-11T20:03:42.525Z,7.00
2023-01-11T20:08:41.110Z,6.90
2023-01-11T20:11:12.524Z,6.90
2023-01-11T20:13:40.934Z,6.90
2023-01-11T20:16:11.368Z,6.90
2023-01-11T20:18:39.506Z,6.90
2023-01-11T20:21:07.079Z,6.80
2023-01-11T20:23:34.680Z,6.90
2023-01-11T20:26:05.610Z,6.90
2023-01-11T20:28:33.938Z,6.90
2023-01-11T20:31:06.538Z,6.90
2023-01-11T20:33:34.379Z,6.90
2023-01-11T20:36:09.365Z,6.90
2023-01-11T20:38:36.973Z,6.90
2023-01-11T20:41:13.179Z,6.90
2023-01-11T20:43:40.776Z,6.90
2023-01-11T20:46:08.455Z,6.90
2023-01-11T20:48:36.496Z,6.90
2023-01-11T20:51:04.449Z,6.90
2023-01-11T20:53:32.157Z,6.90
2023-01-11T20:56:06.103Z,6.90
2023-01-11T20:58:33.979Z,6.90
2023-01-11T21:01:09.640Z,6.90
2023-01-11T21:03:37.206Z,6.90
2023-01-11T21:06:06.297Z,6.90
2023-01-11T21:08:34.687Z,6.90
2023-01-11T21:11:10.747Z,6.90
2023-01-11T21:13:38.952Z,6.90
2023-01-11T21:16:14.687Z,6.90
2023-01-11T21:18:44.068Z,7.00
2023-01-11T21:21:13.553Z,6.90
2023-01-11T21:23:41.874Z,6.90
2023-01-11T21:26:19.635Z,6.90
2023-01-11T21:28:55.686Z,7.00
2023-01-11T21:31:23.391Z,7.00
2023-01-11T21:33:51.100Z,7.00
2023-01-11T21:36:22.387Z,7.00
2023-01-11T21:38:50.498Z,7.00
2023-01-11T21:41:41.556Z,7.00
2023-01-11T21:44:10.935Z,7.00
2023-01-11T21:46:39.163Z,7.00
2023-01-11T21:49:07.187Z,7.00
2023-01-11T21:51:35.405Z,7.00
2023-01-11T21:54:11.113Z,7.00
2023-01-11T21:56:39.099Z,7.00
2023-01-11T21:59:06.769Z,7.00
2023-01-11T22:01:34.522Z,7.00
2023-01-11T22:04:10.858Z,7.00
2023-01-11T22:06:40.190Z,7.00
2023-01-11T22:09:11.939Z,7.00
2023-01-11T22:11:39.787Z,7.00
2023-01-11T22:14:08.696Z,7.10
2023-01-11T22:16:37.214Z,7.10
2023-01-11T22:19:07.345Z,7.10
2023-01-11T22:21:36.705Z,7.10
2023-01-11T22:24:06.579Z,7.10
2023-01-11T22:26:38.583Z,7.20
2023-01-11T22:29:17.063Z,7.20
2023-01-11T22:31:55.436Z,7.30
2023-01-11T22:34:23.538Z,7.20
2023-01-11T22:36:51.424Z,7.30
2023-01-11T22:39:21.655Z,7.20
2023-01-11T22:41:49.490Z,7.30
2023-01-11T22:44:17.449Z,7.30
2023-01-11T22:46:45.744Z,7.30
2023-01-11T22:49:13.960Z,7.40
2023-01-11T22:51:42.434Z,7.40
2023-01-11T22:54:10.870Z,7.40
2023-01-11T22:56:38.613Z,7.40
2023-01-11T22:59:06.511Z,7.40
2023-01-11T23:01:36.626Z,7.40
2023-01-11T23:04:04.808Z,7.50
2023-01-11T23:06:35.341Z,7.50
2023-01-11T23:09:03.674Z,7.50
2023-01-11T23:11:53.854Z,7.50
2023-01-11T23:14:22.302Z,7.60
2023-01-11T23:16:50.638Z,7.60
2023-01-11T23:19:20.429Z,7.60
2023-01-11T23:21:48.468Z,7.60
2023-01-11T23:24:17.084Z,7.60
2023-01-11T23:26:45.418Z,7.60
2023-01-11T23:29:13.284Z,7.60
2023-01-11T23:31:42.779Z,7.60
2023-01-11T23:34:11.950Z,7.60
2023-01-11T23:36:41.695Z,7.60
2023-01-11T23:39:15.239Z,7.70
2023-01-11T23:42:01.589Z,7.70
2023-01-11T23:44:29.640Z,7.70
2023-01-11T23:47:16.016Z,7.70
2023-01-11T23:49:43.866Z,7.80
2023-01-11T23:52:11.978Z,7.80
2023-01-11T23:54:39.921Z,7.80
2023-01-11T23:57:07.819Z,7.90
2023-01-11T23:59:35.353Z,7.90
